PWSweather.com
Personal Weather Stations
Station Observations
WHHZ1080
Hladke ZivoticeCZ 742 47

Hladke ZivoticeCZ 742 47

Lat: 49.6818201, Lon: 17.94963610000002

Elevation: 282

Station Type: Davis Vantage Vue

http://wh1080.m-zone.cz/

Latest ConditionsUpdated 11:15:01 PM GMT+01:01 Wednesday, Dec 12, 2018
Currently Today's Max Today's Min Today's Average
Temperature 32.5°F0.3°C 35.1°F1.7°C 32.2°F0.1°C 33.0°F0.6°C
Dew Point 29.7°F-1.3°C 31.4°F-0.3°C 29.0°F-1.7°C 30.2°F-1.0°C
Winds 1.0 mph NE1.6 kmh NE 5.0 mph -8.0 kmh - - 1.5 mph 2.4 kmh
Wind Gusts 5.0 mph8.0 kmh 12.0 mph19.3 kmh - -
Humidity 89% 93% 83% 89%
Pressure 30.27 in1025.1 mb 30.27 in1025.1 mb 30.04 in1017.3 mb -
Precipitation - 0.08 in2.0 mm - -
Hour Temp Dew Point Humidity Winds Wind Gusts Pressure Precip Precip Rate Daily Precip Total
11:15 PM 32.5°F0.3°C 29.7°F-1.3°C 89% 1.0 mph NE1.6 kmh NE 5.0 mph8.0 kmh 30.27 in1025.1 mb 0.00 in0.0 mm 0.00 in0.0 mm 0.08 in2.0 mm
11:10 PM 32.5°F0.3°C 29.7°F-1.3°C 89% 2.0 mph NE3.2 kmh NE 5.0 mph8.0 kmh 30.27 in1025.1 mb 0.00 in0.0 mm 0.00 in0.0 mm 0.08 in2.0 mm
11:05 PM 32.5°F0.3°C 29.7°F-1.3°C 89% 3.0 mph NE4.8 kmh NE 5.0 mph8.0 kmh 30.27 in1025.1 mb 0.00 in0.0 mm 0.00 in0.0 mm 0.08 in2.0 mm
11:00 PM 32.5°F0.3°C 29.7°F-1.3°C 89% 3.0 mph NE4.8 kmh NE 6.0 mph9.7 kmh 30.27 in1025.1 mb 0.00 in0.0 mm 0.00 in0.0 mm 0.08 in2.0 mm
10:55 PM 32.5°F0.3°C 29.7°F-1.3°C 89% 2.0 mph NE3.2 kmh NE 6.0 mph9.7 kmh 30.26 in1024.7 mb 0.00 in0.0 mm 0.00 in0.0 mm 0.08 in2.0 mm
10:50 PM 32.5°F0.3°C 29.7°F-1.3°C 89% 2.0 mph NE3.2 kmh NE 6.0 mph9.7 kmh 30.27 in1025.1 mb 0.00 in0.0 mm 0.00 in0.0 mm 0.08 in2.0 mm
10:45 PM 32.4°F0.2°C 29.5°F-1.4°C 89% 1.0 mph NNE1.6 kmh NNE 6.0 mph9.7 kmh 30.27 in1025.1 mb 0.00 in0.0 mm 0.00 in0.0 mm 0.08 in2.0 mm
10:40 PM 32.4°F0.2°C 29.5°F-1.4°C 89% 1.0 mph NNE1.6 kmh NNE 4.0 mph6.4 kmh 30.27 in1025.1 mb 0.00 in0.0 mm 0.00 in0.0 mm 0.08 in2.0 mm
10:35 PM 32.4°F0.2°C 29.5°F-1.4°C 89% 1.0 mph NNE1.6 kmh NNE 4.0 mph6.4 kmh 30.26 in1024.7 mb 0.00 in0.0 mm 0.00 in0.0 mm 0.08 in2.0 mm
10:30 PM 32.4°F0.2°C 29.5°F-1.4°C 89% 1.0 mph NNE1.6 kmh NNE 4.0 mph6.4 kmh 30.27 in1025.1 mb 0.00 in0.0 mm 0.00 in0.0 mm 0.08 in2.0 mm
10:25 PM 32.4°F0.2°C 29.5°F-1.4°C 89% 1.0 mph NE1.6 kmh NE 3.0 mph4.8 kmh 30.26 in1024.7 mb 0.00 in0.0 mm 0.00 in0.0 mm 0.08 in2.0 mm
10:20 PM 32.4°F0.2°C 29.5°F-1.4°C 89% 1.0 mph NE1.6 kmh NE 3.0 mph4.8 kmh 30.26 in1024.7 mb 0.00 in0.0 mm 0.00 in0.0 mm 0.08 in2.0 mm
10:15 PM 32.2°F0.1°C 29.3°F-1.5°C 89% 1.0 mph NE1.6 kmh NE 4.0 mph6.4 kmh 30.26 in1024.7 mb 0.00 in0.0 mm 0.00 in0.0 mm 0.08 in2.0 mm
10:10 PM 32.2°F0.1°C 29.3°F-1.5°C 89% Calm Calm 4.0 mph6.4 kmh 30.26 in1024.7 mb 0.00 in0.0 mm 0.00 in0.0 mm 0.08 in2.0 mm
10:05 PM 32.2°F0.1°C 29.3°F-1.5°C 89% 1.0 mph NE1.6 kmh NE 4.0 mph6.4 kmh 30.26 in1024.7 mb 0.00 in0.0 mm 0.00 in0.0 mm 0.08 in2.0 mm
10:00 PM 32.4°F0.2°C 29.5°F-1.4°C 89% 1.0 mph NE1.6 kmh NE 4.0 mph6.4 kmh 30.26 in1024.7 mb 0.00 in0.0 mm 0.00 in0.0 mm 0.08 in2.0 mm
09:55 PM 32.4°F0.2°C 29.5°F-1.4°C 89% 1.0 mph NE1.6 kmh NE 3.0 mph4.8 kmh 30.26 in1024.7 mb 0.00 in0.0 mm 0.00 in0.0 mm 0.08 in2.0 mm
09:50 PM 32.4°F0.2°C 29.5°F-1.4°C 89% 1.0 mph NE1.6 kmh NE 4.0 mph6.4 kmh 30.26 in1024.7 mb 0.00 in0.0 mm 0.00 in0.0 mm 0.08 in2.0 mm
09:45 PM 32.4°F0.2°C 29.5°F-1.4°C 89% 1.0 mph NE1.6 kmh NE 4.0 mph6.4 kmh 30.26 in1024.7 mb 0.00 in0.0 mm 0.00 in0.0 mm 0.08 in2.0 mm
09:40 PM 32.4°F0.2°C 29.5°F-1.4°C 89% 1.0 mph NNE1.6 kmh NNE 5.0 mph8.0 kmh 30.26 in1024.7 mb 0.00 in0.0 mm 0.00 in0.0 mm 0.08 in2.0 mm
09:35 PM 32.4°F0.2°C 29.5°F-1.4°C 89% 2.0 mph NNE3.2 kmh NNE 5.0 mph8.0 kmh 30.26 in1024.7 mb 0.00 in0.0 mm 0.00 in0.0 mm 0.08 in2.0 mm
09:30 PM 32.4°F0.2°C 29.5°F-1.4°C 89% 2.0 mph NE3.2 kmh NE 4.0 mph6.4 kmh 30.26 in1024.7 mb 0.00 in0.0 mm 0.00 in0.0 mm 0.08 in2.0 mm
09:25 PM 32.4°F0.2°C 29.5°F-1.4°C 89% 2.0 mph NE3.2 kmh NE 5.0 mph8.0 kmh 30.25 in1024.4 mb 0.00 in0.0 mm 0.00 in0.0 mm 0.08 in2.0 mm
09:20 PM 32.5°F0.3°C 29.7°F-1.3°C 89% 2.0 mph NE3.2 kmh NE 5.0 mph8.0 kmh 30.26 in1024.7 mb 0.00 in0.0 mm 0.00 in0.0 mm 0.08 in2.0 mm
09:15 PM 32.5°F0.3°C 29.7°F-1.3°C 89% 2.0 mph NE3.2 kmh NE 5.0 mph8.0 kmh 30.26 in1024.7 mb 0.00 in0.0 mm 0.00 in0.0 mm 0.08 in2.0 mm
09:10 PM 32.5°F0.3°C 29.7°F-1.3°C 89% 1.0 mph NE1.6 kmh NE 5.0 mph8.0 kmh 30.25 in1024.4 mb 0.00 in0.0 mm 0.00 in0.0 mm 0.08 in2.0 mm
09:05 PM 32.5°F0.3°C 29.7°F-1.3°C 89% 2.0 mph NE3.2 kmh NE 5.0 mph8.0 kmh 30.25 in1024.4 mb 0.00 in0.0 mm 0.00 in0.0 mm 0.08 in2.0 mm
09:00 PM 32.5°F0.3°C 29.4°F-1.4°C 88% 3.0 mph NE4.8 kmh NE 5.0 mph8.0 kmh 30.25 in1024.4 mb 0.00 in0.0 mm 0.00 in0.0 mm 0.08 in2.0 mm
08:55 PM 32.5°F0.3°C 29.4°F-1.4°C 88% 3.0 mph NE4.8 kmh NE 6.0 mph9.7 kmh 30.25 in1024.4 mb 0.00 in0.0 mm 0.00 in0.0 mm 0.08 in2.0 mm
08:50 PM 32.5°F0.3°C 29.4°F-1.4°C 88% 3.0 mph NE4.8 kmh NE 6.0 mph9.7 kmh 30.25 in1024.4 mb 0.00 in0.0 mm 0.00 in0.0 mm 0.08 in2.0 mm
08:45 PM 32.5°F0.3°C 29.4°F-1.4°C 88% 3.0 mph NE4.8 kmh NE 7.0 mph11.3 kmh 30.25 in1024.4 mb 0.00 in0.0 mm 0.00 in0.0 mm 0.08 in2.0 mm
08:40 PM 32.5°F0.3°C 29.4°F-1.4°C 88% 3.0 mph NE4.8 kmh NE 7.0 mph11.3 kmh 30.25 in1024.4 mb 0.00 in0.0 mm 0.00 in0.0 mm 0.08 in2.0 mm
08:35 PM 32.5°F0.3°C 29.4°F-1.4°C 88% 2.0 mph NE3.2 kmh NE 8.0 mph12.9 kmh 30.25 in1024.4 mb 0.00 in0.0 mm 0.00 in0.0 mm 0.08 in2.0 mm
08:30 PM 32.5°F0.3°C 29.4°F-1.4°C 88% 2.0 mph NE3.2 kmh NE 8.0 mph12.9 kmh 30.25 in1024.4 mb 0.00 in0.0 mm 0.00 in0.0 mm 0.08 in2.0 mm
08:25 PM 32.5°F0.3°C 29.4°F-1.4°C 88% 1.0 mph NE1.6 kmh NE 6.0 mph9.7 kmh 30.25 in1024.4 mb 0.00 in0.0 mm 0.00 in0.0 mm 0.08 in2.0 mm
08:20 PM 32.5°F0.3°C 29.4°F-1.4°C 88% 1.0 mph NNE1.6 kmh NNE 5.0 mph8.0 kmh 30.25 in1024.4 mb 0.00 in0.0 mm 0.00 in0.0 mm 0.08 in2.0 mm
08:15 PM 32.4°F0.2°C 29.2°F-1.6°C 88% 1.0 mph NNE1.6 kmh NNE 4.0 mph6.4 kmh 30.25 in1024.4 mb 0.00 in0.0 mm 0.00 in0.0 mm 0.08 in2.0 mm
08:10 PM 32.5°F0.3°C 29.4°F-1.4°C 88% 1.0 mph NNE1.6 kmh NNE 4.0 mph6.4 kmh 30.25 in1024.4 mb 0.00 in0.0 mm 0.00 in0.0 mm 0.08 in2.0 mm
08:05 PM 32.4°F0.2°C 29.2°F-1.6°C 88% 1.0 mph NE1.6 kmh NE 4.0 mph6.4 kmh 30.25 in1024.4 mb 0.00 in0.0 mm 0.00 in0.0 mm 0.08 in2.0 mm
08:00 PM 32.4°F0.2°C 29.2°F-1.6°C 88% 1.0 mph NNE1.6 kmh NNE 4.0 mph6.4 kmh 30.24 in1024.0 mb 0.00 in0.0 mm 0.00 in0.0 mm 0.08 in2.0 mm
07:55 PM 32.4°F0.2°C 29.2°F-1.6°C 88% 1.0 mph N1.6 kmh N 4.0 mph6.4 kmh 30.24 in1024.0 mb 0.00 in0.0 mm 0.00 in0.0 mm 0.08 in2.0 mm
07:50 PM 32.4°F0.2°C 29.2°F-1.6°C 88% 1.0 mph N1.6 kmh N 4.0 mph6.4 kmh 30.24 in1024.0 mb 0.00 in0.0 mm 0.00 in0.0 mm 0.08 in2.0 mm
07:45 PM 32.4°F0.2°C 29.2°F-1.6°C 88% 1.0 mph N1.6 kmh N 4.0 mph6.4 kmh 30.24 in1024.0 mb 0.00 in0.0 mm 0.00 in0.0 mm 0.08 in2.0 mm
07:40 PM 32.4°F0.2°C 29.2°F-1.6°C 88% 1.0 mph NNW1.6 kmh NNW 4.0 mph6.4 kmh 30.24 in1024.0 mb 0.00 in0.0 mm 0.00 in0.0 mm 0.08 in2.0 mm
07:35 PM 32.4°F0.2°C 29.2°F-1.6°C 88% 1.0 mph NNW1.6 kmh NNW 4.0 mph6.4 kmh 30.24 in1024.0 mb 0.00 in0.0 mm 0.00 in0.0 mm 0.08 in2.0 mm
07:30 PM 32.4°F0.2°C 29.2°F-1.6°C 88% 1.0 mph NNW1.6 kmh NNW 3.0 mph4.8 kmh 30.24 in1024.0 mb 0.00 in0.0 mm 0.00 in0.0 mm 0.08 in2.0 mm
07:25 PM 32.4°F0.2°C 29.2°F-1.6°C 88% 1.0 mph NNW1.6 kmh NNW 4.0 mph6.4 kmh 30.24 in1024.0 mb 0.00 in0.0 mm 0.00 in0.0 mm 0.08 in2.0 mm
07:20 PM 32.5°F0.3°C 29.1°F-1.6°C 87% 1.0 mph N1.6 kmh N 4.0 mph6.4 kmh 30.24 in1024.0 mb 0.00 in0.0 mm 0.00 in0.0 mm 0.08 in2.0 mm
07:15 PM 32.5°F0.3°C 29.1°F-1.6°C 87% 2.0 mph NNE3.2 kmh NNE 6.0 mph9.7 kmh 30.24 in1024.0 mb 0.00 in0.0 mm 0.00 in0.0 mm 0.08 in2.0 mm
07:10 PM 32.5°F0.3°C 29.1°F-1.6°C 87% 3.0 mph NE4.8 kmh NE 6.0 mph9.7 kmh 30.24 in1024.0 mb 0.00 in0.0 mm 0.00 in0.0 mm 0.08 in2.0 mm
07:05 PM 32.5°F0.3°C 29.1°F-1.6°C 87% 3.0 mph NE4.8 kmh NE 8.0 mph12.9 kmh 30.24 in1024.0 mb 0.00 in0.0 mm 0.00 in0.0 mm 0.08 in2.0 mm
07:00 PM 32.7°F0.4°C 29.3°F-1.5°C 87% 3.0 mph NE4.8 kmh NE 10.0 mph16.1 kmh 30.24 in1024.0 mb 0.00 in0.0 mm 0.00 in0.0 mm 0.08 in2.0 mm
06:55 PM 32.7°F0.4°C 29.3°F-1.5°C 87% 3.0 mph NE4.8 kmh NE 10.0 mph16.1 kmh 30.24 in1024.0 mb 0.00 in0.0 mm 0.00 in0.0 mm 0.08 in2.0 mm
06:50 PM 32.7°F0.4°C 29.3°F-1.5°C 87% 2.0 mph NE3.2 kmh NE 8.0 mph12.9 kmh 30.24 in1024.0 mb 0.00 in0.0 mm 0.00 in0.0 mm 0.08 in2.0 mm
06:45 PM 32.7°F0.4°C 29.3°F-1.5°C 87% 2.0 mph NNE3.2 kmh NNE 6.0 mph9.7 kmh 30.23 in1023.7 mb 0.00 in0.0 mm 0.00 in0.0 mm 0.08 in2.0 mm
06:40 PM 32.7°F0.4°C 29.3°F-1.5°C 87% 2.0 mph NNE3.2 kmh NNE 5.0 mph8.0 kmh 30.23 in1023.7 mb 0.00 in0.0 mm 0.00 in0.0 mm 0.08 in2.0 mm
06:35 PM 32.7°F0.4°C 29.3°F-1.5°C 87% 2.0 mph NE3.2 kmh NE 5.0 mph8.0 kmh 30.23 in1023.7 mb 0.00 in0.0 mm 0.00 in0.0 mm 0.08 in2.0 mm
06:30 PM 32.7°F0.4°C 29.3°F-1.5°C 87% 2.0 mph NE3.2 kmh NE 5.0 mph8.0 kmh 30.23 in1023.7 mb 0.00 in0.0 mm 0.00 in0.0 mm 0.08 in2.0 mm
06:25 PM 32.7°F0.4°C 29.6°F-1.3°C 88% 2.0 mph NE3.2 kmh NE 6.0 mph9.7 kmh 30.23 in1023.7 mb 0.00 in0.0 mm 0.00 in0.0 mm 0.08 in2.0 mm
06:20 PM 32.5°F0.3°C 29.4°F-1.4°C 88% 2.0 mph NNE3.2 kmh NNE 6.0 mph9.7 kmh 30.23 in1023.7 mb 0.00 in0.0 mm 0.00 in0.0 mm 0.08 in2.0 mm
06:15 PM 32.5°F0.3°C 29.4°F-1.4°C 88% 2.0 mph N3.2 kmh N 4.0 mph6.4 kmh 30.23 in1023.7 mb 0.00 in0.0 mm 0.00 in0.0 mm 0.08 in2.0 mm
06:10 PM 32.5°F0.3°C 29.4°F-1.4°C 88% 2.0 mph NNW3.2 kmh NNW 5.0 mph8.0 kmh 30.23 in1023.7 mb 0.00 in0.0 mm 0.00 in0.0 mm 0.08 in2.0 mm
06:05 PM 32.5°F0.3°C 29.4°F-1.4°C 88% 1.0 mph NNW1.6 kmh NNW 5.0 mph8.0 kmh 30.22 in1023.4 mb 0.00 in0.0 mm 0.00 in0.0 mm 0.08 in2.0 mm
06:00 PM 32.5°F0.3°C 29.4°F-1.4°C 88% 1.0 mph N1.6 kmh N 5.0 mph8.0 kmh 30.23 in1023.7 mb 0.00 in0.0 mm 0.00 in0.0 mm 0.08 in2.0 mm
05:55 PM 32.5°F0.3°C 29.4°F-1.4°C 88% 1.0 mph NNE1.6 kmh NNE 5.0 mph8.0 kmh 30.22 in1023.4 mb 0.00 in0.0 mm 0.00 in0.0 mm 0.08 in2.0 mm
05:50 PM 32.5°F0.3°C 29.4°F-1.4°C 88% 1.0 mph NNE1.6 kmh NNE 4.0 mph6.4 kmh 30.23 in1023.7 mb 0.00 in0.0 mm 0.00 in0.0 mm 0.08 in2.0 mm
05:45 PM 32.5°F0.3°C 29.4°F-1.4°C 88% 1.0 mph NNE1.6 kmh NNE 5.0 mph8.0 kmh 30.23 in1023.7 mb 0.00 in0.0 mm 0.00 in0.0 mm 0.08 in2.0 mm
05:40 PM 32.5°F0.3°C 29.4°F-1.4°C 88% 1.0 mph NNE1.6 kmh NNE 6.0 mph9.7 kmh 30.23 in1023.7 mb 0.00 in0.0 mm 0.00 in0.0 mm 0.08 in2.0 mm
05:35 PM 32.5°F0.3°C 29.4°F-1.4°C 88% 2.0 mph NNE3.2 kmh NNE 6.0 mph9.7 kmh 30.22 in1023.4 mb 0.00 in0.0 mm 0.00 in0.0 mm 0.08 in2.0 mm
05:30 PM 32.5°F0.3°C 29.1°F-1.6°C 87% 2.0 mph NE3.2 kmh NE 5.0 mph8.0 kmh 30.22 in1023.4 mb 0.00 in0.0 mm 0.00 in0.0 mm 0.08 in2.0 mm
05:25 PM 32.5°F0.3°C 29.1°F-1.6°C 87% 2.0 mph NE3.2 kmh NE 5.0 mph8.0 kmh 30.22 in1023.4 mb 0.00 in0.0 mm 0.00 in0.0 mm 0.08 in2.0 mm
05:20 PM 32.7°F0.4°C 29.3°F-1.5°C 87% 3.0 mph NE4.8 kmh NE 6.0 mph9.7 kmh 30.22 in1023.4 mb 0.00 in0.0 mm 0.00 in0.0 mm 0.08 in2.0 mm
05:15 PM 32.7°F0.4°C 29.3°F-1.5°C 87% 3.0 mph NE4.8 kmh NE 9.0 mph14.5 kmh 30.22 in1023.4 mb 0.00 in0.0 mm 0.00 in0.0 mm 0.08 in2.0 mm
05:10 PM 32.7°F0.4°C 29.6°F-1.3°C 88% 2.0 mph NE3.2 kmh NE 9.0 mph14.5 kmh 30.22 in1023.4 mb 0.00 in0.0 mm 0.00 in0.0 mm 0.08 in2.0 mm
05:05 PM 32.7°F0.4°C 29.6°F-1.3°C 88% 2.0 mph NE3.2 kmh NE 6.0 mph9.7 kmh 30.22 in1023.4 mb 0.00 in0.0 mm 0.00 in0.0 mm 0.08 in2.0 mm
05:00 PM 32.5°F0.3°C 29.4°F-1.4°C 88% 2.0 mph NE3.2 kmh NE 6.0 mph9.7 kmh 30.22 in1023.4 mb 0.00 in0.0 mm 0.00 in0.0 mm 0.08 in2.0 mm
04:55 PM 32.7°F0.4°C 29.6°F-1.3°C 88% 2.0 mph NE3.2 kmh NE 6.0 mph9.7 kmh 30.22 in1023.4 mb 0.00 in0.0 mm 0.00 in0.0 mm 0.08 in2.0 mm
04:50 PM 32.7°F0.4°C 29.6°F-1.3°C 88% 2.0 mph NE3.2 kmh NE 5.0 mph8.0 kmh 30.21 in1023.0 mb 0.00 in0.0 mm 0.00 in0.0 mm 0.08 in2.0 mm
04:45 PM 32.7°F0.4°C 29.6°F-1.3°C 88% 3.0 mph NE4.8 kmh NE 7.0 mph11.3 kmh 30.22 in1023.4 mb 0.00 in0.0 mm 0.00 in0.0 mm 0.08 in2.0 mm
04:40 PM 32.7°F0.4°C 29.3°F-1.5°C 87% 3.0 mph NE4.8 kmh NE 7.0 mph11.3 kmh 30.21 in1023.0 mb 0.00 in0.0 mm 0.00 in0.0 mm 0.08 in2.0 mm
04:35 PM 32.7°F0.4°C 29.3°F-1.5°C 87% 2.0 mph NE3.2 kmh NE 7.0 mph11.3 kmh 30.21 in1023.0 mb 0.00 in0.0 mm 0.00 in0.0 mm 0.08 in2.0 mm
04:30 PM 32.7°F0.4°C 29.3°F-1.5°C 87% 2.0 mph NE3.2 kmh NE 6.0 mph9.7 kmh 30.21 in1023.0 mb 0.00 in0.0 mm 0.00 in0.0 mm 0.08 in2.0 mm
04:25 PM 32.7°F0.4°C 29.0°F-1.7°C 86% 2.0 mph NE3.2 kmh NE 5.0 mph8.0 kmh 30.21 in1023.0 mb 0.00 in0.0 mm 0.00 in0.0 mm 0.08 in2.0 mm
04:20 PM 32.9°F0.5°C 29.2°F-1.6°C 86% 2.0 mph NE3.2 kmh NE 5.0 mph8.0 kmh 30.21 in1023.0 mb 0.00 in0.0 mm 0.00 in0.0 mm 0.08 in2.0 mm
04:15 PM 32.9°F0.5°C 29.2°F-1.6°C 86% 2.0 mph NE3.2 kmh NE 6.0 mph9.7 kmh 30.21 in1023.0 mb 0.00 in0.0 mm 0.00 in0.0 mm 0.08 in2.0 mm
04:10 PM 32.7°F0.4°C 29.0°F-1.7°C 86% 1.0 mph NE1.6 kmh NE 6.0 mph9.7 kmh 30.21 in1023.0 mb 0.00 in0.0 mm 0.00 in0.0 mm 0.08 in2.0 mm
04:05 PM 32.9°F0.5°C 29.2°F-1.6°C 86% 1.0 mph NE1.6 kmh NE 3.0 mph4.8 kmh 30.21 in1023.0 mb 0.00 in0.0 mm 0.00 in0.0 mm 0.08 in2.0 mm
04:00 PM 32.7°F0.4°C 29.0°F-1.7°C 86% 2.0 mph NE3.2 kmh NE 4.0 mph6.4 kmh 30.21 in1023.0 mb 0.00 in0.0 mm 0.00 in0.0 mm 0.08 in2.0 mm
03:55 PM 32.9°F0.5°C 29.2°F-1.6°C 86% 2.0 mph NE3.2 kmh NE 5.0 mph8.0 kmh 30.21 in1023.0 mb 0.00 in0.0 mm 0.00 in0.0 mm 0.08 in2.0 mm
03:50 PM 33.1°F0.6°C 29.3°F-1.5°C 86% 2.0 mph NE3.2 kmh NE 5.0 mph8.0 kmh 30.20 in1022.7 mb 0.00 in0.0 mm 0.00 in0.0 mm 0.08 in2.0 mm
03:45 PM 33.1°F0.6°C 29.3°F-1.5°C 86% 2.0 mph NE3.2 kmh NE 5.0 mph8.0 kmh 30.20 in1022.7 mb 0.00 in0.0 mm 0.00 in0.0 mm 0.08 in2.0 mm
03:40 PM 33.1°F0.6°C 29.3°F-1.5°C 86% 2.0 mph NE3.2 kmh NE 5.0 mph8.0 kmh 30.20 in1022.7 mb 0.00 in0.0 mm 0.00 in0.0 mm 0.08 in2.0 mm
03:35 PM 33.1°F0.6°C 29.3°F-1.5°C 86% 2.0 mph NE3.2 kmh NE 7.0 mph11.3 kmh 30.20 in1022.7 mb 0.00 in0.0 mm 0.00 in0.0 mm 0.08 in2.0 mm
03:30 PM 33.3°F0.7°C 29.5°F-1.4°C 86% 2.0 mph NE3.2 kmh NE 7.0 mph11.3 kmh 30.20 in1022.7 mb 0.00 in0.0 mm 0.00 in0.0 mm 0.08 in2.0 mm
03:25 PM 33.3°F0.7°C 29.5°F-1.4°C 86% 2.0 mph NE3.2 kmh NE 6.0 mph9.7 kmh 30.20 in1022.7 mb 0.00 in0.0 mm 0.00 in0.0 mm 0.08 in2.0 mm
03:20 PM 33.3°F0.7°C 29.5°F-1.4°C 86% 2.0 mph NE3.2 kmh NE 5.0 mph8.0 kmh 30.20 in1022.7 mb 0.00 in0.0 mm 0.00 in0.0 mm 0.08 in2.0 mm
03:15 PM 33.3°F0.7°C 29.5°F-1.4°C 86% 3.0 mph NE4.8 kmh NE 5.0 mph8.0 kmh 30.20 in1022.7 mb 0.00 in0.0 mm 0.00 in0.0 mm 0.08 in2.0 mm
03:10 PM 33.4°F0.8°C 29.4°F-1.4°C 85% 3.0 mph NE4.8 kmh NE 6.0 mph9.7 kmh 30.20 in1022.7 mb 0.00 in0.0 mm 0.00 in0.0 mm 0.08 in2.0 mm
03:05 PM 33.6°F0.9°C 29.6°F-1.3°C 85% 2.0 mph NE3.2 kmh NE 6.0 mph9.7 kmh 30.20 in1022.7 mb 0.00 in0.0 mm 0.00 in0.0 mm 0.08 in2.0 mm
03:00 PM 33.6°F0.9°C 29.6°F-1.3°C 85% 2.0 mph NE3.2 kmh NE 6.0 mph9.7 kmh 30.20 in1022.7 mb 0.00 in0.0 mm 0.00 in0.0 mm 0.08 in2.0 mm
02:55 PM 33.8°F1.0°C 29.8°F-1.2°C 85% 1.0 mph NE1.6 kmh NE 7.0 mph11.3 kmh 30.20 in1022.7 mb 0.00 in0.0 mm 0.00 in0.0 mm 0.08 in2.0 mm
02:50 PM 33.8°F1.0°C 29.8°F-1.2°C 85% 2.0 mph NNE3.2 kmh NNE 7.0 mph11.3 kmh 30.19 in1022.4 mb 0.00 in0.0 mm 0.00 in0.0 mm 0.08 in2.0 mm
02:45 PM 34.0°F1.1°C 29.9°F-1.2°C 85% 3.0 mph NNE4.8 kmh NNE 8.0 mph12.9 kmh 30.20 in1022.7 mb 0.00 in0.0 mm 0.00 in0.0 mm 0.08 in2.0 mm
02:40 PM 34.0°F1.1°C 29.7°F-1.3°C 84% 2.0 mph N3.2 kmh N 8.0 mph12.9 kmh 30.19 in1022.4 mb 0.00 in0.0 mm 0.00 in0.0 mm 0.08 in2.0 mm
02:35 PM 34.2°F1.2°C 29.8°F-1.2°C 84% 2.0 mph N3.2 kmh N 6.0 mph9.7 kmh 30.19 in1022.4 mb 0.00 in0.0 mm 0.00 in0.0 mm 0.08 in2.0 mm
02:30 PM 34.2°F1.2°C 29.8°F-1.2°C 84% 2.0 mph NNE3.2 kmh NNE 7.0 mph11.3 kmh 30.19 in1022.4 mb 0.00 in0.0 mm 0.00 in0.0 mm 0.08 in2.0 mm
02:25 PM 34.2°F1.2°C 30.1°F-1.1°C 85% 3.0 mph NNE4.8 kmh NNE 7.0 mph11.3 kmh 30.19 in1022.4 mb 0.00 in0.0 mm 0.00 in0.0 mm 0.08 in2.0 mm
02:20 PM 34.2°F1.2°C 30.1°F-1.1°C 85% 3.0 mph NNE4.8 kmh NNE 7.0 mph11.3 kmh 30.19 in1022.4 mb 0.00 in0.0 mm 0.00 in0.0 mm 0.08 in2.0 mm
02:15 PM 34.3°F1.3°C 30.0°F-1.1°C 84% 3.0 mph NE4.8 kmh NE 7.0 mph11.3 kmh 30.19 in1022.4 mb 0.00 in0.0 mm 0.00 in0.0 mm 0.08 in2.0 mm
02:10 PM 34.3°F1.3°C 30.0°F-1.1°C 84% 2.0 mph NE3.2 kmh NE 7.0 mph11.3 kmh 30.19 in1022.4 mb 0.00 in0.0 mm 0.00 in0.0 mm 0.08 in2.0 mm
02:05 PM 34.3°F1.3°C 30.3°F-0.9°C 85% 3.0 mph N4.8 kmh N 6.0 mph9.7 kmh 30.19 in1022.4 mb 0.00 in0.0 mm 0.00 in0.0 mm 0.08 in2.0 mm
02:00 PM 34.3°F1.3°C 30.0°F-1.1°C 84% 3.0 mph N4.8 kmh N 7.0 mph11.3 kmh 30.19 in1022.4 mb 0.00 in0.0 mm 0.00 in0.0 mm 0.08 in2.0 mm
01:55 PM 34.3°F1.3°C 30.0°F-1.1°C 84% 2.0 mph N3.2 kmh N 7.0 mph11.3 kmh 30.18 in1022.0 mb 0.00 in0.0 mm 0.00 in0.0 mm 0.08 in2.0 mm
01:50 PM 34.3°F1.3°C 30.0°F-1.1°C 84% 2.0 mph N3.2 kmh N 6.0 mph9.7 kmh 30.19 in1022.4 mb 0.00 in0.0 mm 0.00 in0.0 mm 0.08 in2.0 mm
01:45 PM 34.3°F1.3°C 30.0°F-1.1°C 84% 3.0 mph NNW4.8 kmh NNW 6.0 mph9.7 kmh 30.19 in1022.4 mb 0.01 in0.3 mm 0.00 in0.0 mm 0.08 in2.0 mm
01:40 PM 34.5°F1.4°C 30.2°F-1.0°C 84% 3.0 mph NNW4.8 kmh NNW 6.0 mph9.7 kmh 30.18 in1022.0 mb 0.01 in0.3 mm 0.00 in0.0 mm 0.08 in2.0 mm
01:35 PM 34.5°F1.4°C 30.2°F-1.0°C 84% 4.0 mph N6.4 kmh N 8.0 mph12.9 kmh 30.19 in1022.4 mb 0.01 in0.3 mm 0.00 in0.0 mm 0.08 in2.0 mm
01:30 PM 34.7°F1.5°C 30.1°F-1.1°C 83% 5.0 mph NNW8.0 kmh NNW 9.0 mph14.5 kmh 30.18 in1022.0 mb 0.01 in0.3 mm 0.00 in0.0 mm 0.08 in2.0 mm
01:25 PM 34.9°F1.6°C 30.2°F-1.0°C 83% 5.0 mph NNW8.0 kmh NNW 9.0 mph14.5 kmh 30.19 in1022.4 mb 0.01 in0.3 mm 0.00 in0.0 mm 0.08 in2.0 mm
01:20 PM 34.9°F1.6°C 30.2°F-1.0°C 83% 5.0 mph NNW8.0 kmh NNW 10.0 mph16.1 kmh 30.18 in1022.0 mb 0.02 in0.5 mm 0.00 in0.0 mm 0.08 in2.0 mm
01:15 PM 34.9°F1.6°C 30.2°F-1.0°C 83% 5.0 mph NNW8.0 kmh NNW 11.0 mph17.7 kmh 30.18 in1022.0 mb 0.02 in0.5 mm 0.00 in0.0 mm 0.08 in2.0 mm
01:10 PM 34.9°F1.6°C 30.2°F-1.0°C 83% 4.0 mph NNW6.4 kmh NNW 11.0 mph17.7 kmh 30.18 in1022.0 mb 0.02 in0.5 mm 0.00 in0.0 mm 0.08 in2.0 mm
01:05 PM 35.1°F1.7°C 30.7°F-0.7°C 84% 3.0 mph NNW4.8 kmh NNW 10.0 mph16.1 kmh 30.18 in1022.0 mb 0.02 in0.5 mm 0.00 in0.0 mm 0.08 in2.0 mm
01:00 PM 34.9°F1.6°C 30.5°F-0.8°C 84% 3.0 mph N4.8 kmh N 9.0 mph14.5 kmh 30.18 in1022.0 mb 0.02 in0.5 mm 0.00 in0.0 mm 0.08 in2.0 mm
12:55 PM 35.1°F1.7°C 31.0°F-0.6°C 85% 3.0 mph N4.8 kmh N 9.0 mph14.5 kmh 30.18 in1022.0 mb 0.02 in0.5 mm 0.00 in0.0 mm 0.08 in2.0 mm
12:50 PM 34.9°F1.6°C 30.8°F-0.7°C 85% 4.0 mph N6.4 kmh N 8.0 mph12.9 kmh 30.17 in1021.7 mb 0.02 in0.5 mm 0.00 in0.0 mm 0.08 in2.0 mm
12:45 PM 34.9°F1.6°C 30.8°F-0.7°C 85% 4.0 mph N6.4 kmh N 11.0 mph17.7 kmh 30.17 in1021.7 mb 0.02 in0.5 mm 0.00 in0.0 mm 0.07 in1.8 mm
12:40 PM 34.7°F1.5°C 30.7°F-0.7°C 85% 4.0 mph NNW6.4 kmh NNW 11.0 mph17.7 kmh 30.17 in1021.7 mb 0.02 in0.5 mm 0.00 in0.0 mm 0.07 in1.8 mm
12:35 PM 34.7°F1.5°C 30.7°F-0.7°C 85% 5.0 mph NNW8.0 kmh NNW 11.0 mph17.7 kmh 30.17 in1021.7 mb 0.02 in0.5 mm 0.00 in0.0 mm 0.07 in1.8 mm
12:30 PM 34.7°F1.5°C 30.7°F-0.7°C 85% 5.0 mph N8.0 kmh N 12.0 mph19.3 kmh 30.17 in1021.7 mb 0.02 in0.5 mm 0.00 in0.0 mm 0.07 in1.8 mm
12:25 PM 34.7°F1.5°C 30.9°F-0.6°C 86% 5.0 mph N8.0 kmh N 12.0 mph19.3 kmh 30.17 in1021.7 mb 0.02 in0.5 mm 0.00 in0.0 mm 0.07 in1.8 mm
12:20 PM 34.5°F1.4°C 30.5°F-0.8°C 85% 4.0 mph N6.4 kmh N 9.0 mph14.5 kmh 30.17 in1021.7 mb 0.02 in0.5 mm 0.00 in0.0 mm 0.06 in1.5 mm
12:15 PM 34.5°F1.4°C 30.8°F-0.7°C 86% 4.0 mph NNE6.4 kmh NNE 9.0 mph14.5 kmh 30.17 in1021.7 mb 0.02 in0.5 mm 0.00 in0.0 mm 0.06 in1.5 mm
12:10 PM 34.5°F1.4°C 30.5°F-0.8°C 85% 3.0 mph NE4.8 kmh NE 9.0 mph14.5 kmh 30.17 in1021.7 mb 0.02 in0.5 mm 0.00 in0.0 mm 0.06 in1.5 mm
12:05 PM 34.5°F1.4°C 30.5°F-0.8°C 85% 3.0 mph NNE4.8 kmh NNE 9.0 mph14.5 kmh 30.17 in1021.7 mb 0.02 in0.5 mm 0.00 in0.0 mm 0.06 in1.5 mm
12:00 PM 34.5°F1.4°C 30.8°F-0.7°C 86% 3.0 mph NNE4.8 kmh NNE 7.0 mph11.3 kmh 30.17 in1021.7 mb 0.02 in0.5 mm 0.00 in0.0 mm 0.06 in1.5 mm
11:55 AM 34.5°F1.4°C 30.8°F-0.7°C 86% 2.0 mph N3.2 kmh N 7.0 mph11.3 kmh 30.17 in1021.7 mb 0.02 in0.5 mm 0.00 in0.0 mm 0.06 in1.5 mm
11:50 AM 34.3°F1.3°C 30.6°F-0.8°C 86% 2.0 mph N3.2 kmh N 7.0 mph11.3 kmh 30.17 in1021.7 mb 0.02 in0.5 mm 0.00 in0.0 mm 0.06 in1.5 mm
11:45 AM 34.3°F1.3°C 30.9°F-0.6°C 87% 2.0 mph N3.2 kmh N 6.0 mph9.7 kmh 30.17 in1021.7 mb 0.02 in0.5 mm 0.00 in0.0 mm 0.06 in1.5 mm
11:40 AM 34.2°F1.2°C 30.7°F-0.7°C 87% 3.0 mph N4.8 kmh N 6.0 mph9.7 kmh 30.17 in1021.7 mb 0.02 in0.5 mm 0.00 in0.0 mm 0.05 in1.3 mm
11:35 AM 34.0°F1.1°C 30.5°F-0.8°C 87% 3.0 mph NNW4.8 kmh NNW 6.0 mph9.7 kmh 30.17 in1021.7 mb 0.02 in0.5 mm 0.00 in0.0 mm 0.05 in1.3 mm
11:30 AM 34.2°F1.2°C 30.7°F-0.7°C 87% 3.0 mph NNW4.8 kmh NNW 7.0 mph11.3 kmh 30.17 in1021.7 mb 0.02 in0.5 mm 0.00 in0.0 mm 0.05 in1.3 mm
11:25 AM 34.2°F1.2°C 30.7°F-0.7°C 87% 3.0 mph NNW4.8 kmh NNW 7.0 mph11.3 kmh 30.17 in1021.7 mb 0.02 in0.5 mm 0.00 in0.0 mm 0.05 in1.3 mm
11:20 AM 34.2°F1.2°C 30.7°F-0.7°C 87% 4.0 mph NNW6.4 kmh NNW 7.0 mph11.3 kmh 30.17 in1021.7 mb 0.03 in0.8 mm 0.12 in3.0 mm 0.05 in1.3 mm
11:15 AM 34.2°F1.2°C 30.7°F-0.7°C 87% 4.0 mph NNW6.4 kmh NNW 8.0 mph12.9 kmh 30.17 in1021.7 mb 0.02 in0.5 mm 0.00 in0.0 mm 0.04 in1.0 mm
11:10 AM 34.2°F1.2°C 30.7°F-0.7°C 87% 3.0 mph NNW4.8 kmh NNW 9.0 mph14.5 kmh 30.17 in1021.7 mb 0.02 in0.5 mm 0.00 in0.0 mm 0.04 in1.0 mm
11:05 AM 34.3°F1.3°C 30.9°F-0.6°C 87% 3.0 mph NNW4.8 kmh NNW 9.0 mph14.5 kmh 30.17 in1021.7 mb 0.02 in0.5 mm 0.00 in0.0 mm 0.04 in1.0 mm
11:00 AM 34.3°F1.3°C 30.9°F-0.6°C 87% 3.0 mph NNW4.8 kmh NNW 7.0 mph11.3 kmh 30.17 in1021.7 mb 0.03 in0.8 mm 0.01 in0.3 mm 0.04 in1.0 mm
10:55 AM 34.2°F1.2°C 30.7°F-0.7°C 87% 3.0 mph NNW4.8 kmh NNW 7.0 mph11.3 kmh 30.17 in1021.7 mb 0.02 in0.5 mm 0.00 in0.0 mm 0.03 in0.8 mm
10:50 AM 34.2°F1.2°C 31.0°F-0.6°C 88% 3.0 mph NNW4.8 kmh NNW 9.0 mph14.5 kmh 30.16 in1021.3 mb 0.02 in0.5 mm 0.00 in0.0 mm 0.03 in0.8 mm
10:45 AM 34.2°F1.2°C 31.0°F-0.6°C 88% 3.0 mph NNW4.8 kmh NNW 9.0 mph14.5 kmh 30.17 in1021.7 mb 0.02 in0.5 mm 0.00 in0.0 mm 0.03 in0.8 mm
10:40 AM 34.0°F1.1°C 31.1°F-0.5°C 89% 3.0 mph NNW4.8 kmh NNW 7.0 mph11.3 kmh 30.16 in1021.3 mb 0.02 in0.5 mm 0.00 in0.0 mm 0.02 in0.5 mm
10:35 AM 34.0°F1.1°C 31.1°F-0.5°C 89% 3.0 mph NNW4.8 kmh NNW 7.0 mph11.3 kmh 30.16 in1021.3 mb 0.02 in0.5 mm 0.00 in0.0 mm 0.02 in0.5 mm
10:30 AM 34.0°F1.1°C 31.4°F-0.3°C 90% 3.0 mph NNW4.8 kmh NNW 6.0 mph9.7 kmh 30.16 in1021.3 mb 0.02 in0.5 mm 0.00 in0.0 mm 0.02 in0.5 mm
10:25 AM 34.0°F1.1°C 31.4°F-0.3°C 90% 3.0 mph NNW4.8 kmh NNW 8.0 mph12.9 kmh 30.16 in1021.3 mb 0.02 in0.5 mm 0.00 in0.0 mm 0.02 in0.5 mm
10:20 AM 33.6°F0.9°C 31.0°F-0.6°C 90% 3.0 mph NNW4.8 kmh NNW 8.0 mph12.9 kmh 30.16 in1021.3 mb 0.02 in0.5 mm 0.00 in0.0 mm 0.02 in0.5 mm
10:15 AM 33.6°F0.9°C 31.0°F-0.6°C 90% 2.0 mph N3.2 kmh N 9.0 mph14.5 kmh 30.16 in1021.3 mb 0.02 in0.5 mm 0.00 in0.0 mm 0.02 in0.5 mm
10:10 AM 33.6°F0.9°C 31.0°F-0.6°C 90% 2.0 mph NE3.2 kmh NE 9.0 mph14.5 kmh 30.16 in1021.3 mb 0.02 in0.5 mm 0.00 in0.0 mm 0.02 in0.5 mm
10:05 AM 33.6°F0.9°C 31.3°F-0.4°C 91% 2.0 mph NNE3.2 kmh NNE 9.0 mph14.5 kmh 30.16 in1021.3 mb 0.02 in0.5 mm 0.12 in3.0 mm 0.02 in0.5 mm
10:00 AM 33.4°F0.8°C 31.1°F-0.5°C 91% 2.0 mph N3.2 kmh N 8.0 mph12.9 kmh 30.16 in1021.3 mb 0.01 in0.3 mm 0.00 in0.0 mm 0.01 in0.3 mm
09:55 AM 33.4°F0.8°C 31.1°F-0.5°C 91% 3.0 mph NNW4.8 kmh NNW 6.0 mph9.7 kmh 30.16 in1021.3 mb 0.01 in0.3 mm 0.00 in0.0 mm 0.01 in0.3 mm
09:50 AM 33.3°F0.7°C 30.9°F-0.6°C 91% 3.0 mph NNW4.8 kmh NNW 6.0 mph9.7 kmh 30.16 in1021.3 mb 0.01 in0.3 mm 0.00 in0.0 mm 0.01 in0.3 mm
09:45 AM 33.3°F0.7°C 30.9°F-0.6°C 91% 3.0 mph NNW4.8 kmh NNW 6.0 mph9.7 kmh 30.15 in1021.0 mb 0.01 in0.3 mm 0.00 in0.0 mm 0.01 in0.3 mm
09:40 AM 33.1°F0.6°C 30.7°F-0.7°C 91% 3.0 mph NNW4.8 kmh NNW 7.0 mph11.3 kmh 30.15 in1021.0 mb 0.01 in0.3 mm 0.00 in0.0 mm 0.01 in0.3 mm
09:35 AM 33.1°F0.6°C 30.7°F-0.7°C 91% 2.0 mph NNW3.2 kmh NNW 7.0 mph11.3 kmh 30.15 in1021.0 mb 0.01 in0.3 mm 0.00 in0.0 mm 0.01 in0.3 mm
09:30 AM 33.1°F0.6°C 30.7°F-0.7°C 91% 3.0 mph NNW4.8 kmh NNW 6.0 mph9.7 kmh 30.15 in1021.0 mb 0.01 in0.3 mm 0.00 in0.0 mm 0.01 in0.3 mm
09:25 AM 33.1°F0.6°C 30.7°F-0.7°C 91% 3.0 mph NNW4.8 kmh NNW 7.0 mph11.3 kmh 30.14 in1020.7 mb 0.01 in0.3 mm 0.12 in3.0 mm 0.01 in0.3 mm
09:20 AM 33.1°F0.6°C 30.7°F-0.7°C 91% 3.0 mph NNW4.8 kmh NNW 7.0 mph11.3 kmh 30.14 in1020.7 mb 0.00 in0.0 mm 0.00 in0.0 mm 0.00 in0.0 mm
09:15 AM 32.9°F0.5°C 30.6°F-0.8°C 91% 3.0 mph NNW4.8 kmh NNW 7.0 mph11.3 kmh 30.14 in1020.7 mb 0.00 in0.0 mm 0.00 in0.0 mm 0.00 in0.0 mm
09:10 AM 32.9°F0.5°C 30.6°F-0.8°C 91% 3.0 mph NNW4.8 kmh NNW 6.0 mph9.7 kmh 30.14 in1020.7 mb 0.00 in0.0 mm 0.00 in0.0 mm 0.00 in0.0 mm
09:05 AM 32.9°F0.5°C 30.6°F-0.8°C 91% 3.0 mph NNW4.8 kmh NNW 6.0 mph9.7 kmh 30.14 in1020.7 mb 0.00 in0.0 mm 0.00 in0.0 mm 0.00 in0.0 mm
09:00 AM 32.9°F0.5°C 30.6°F-0.8°C 91% 2.0 mph NW3.2 kmh NW 8.0 mph12.9 kmh 30.14 in1020.7 mb 0.00 in0.0 mm 0.00 in0.0 mm 0.00 in0.0 mm
08:55 AM 32.9°F0.5°C 30.6°F-0.8°C 91% 2.0 mph NW3.2 kmh NW 8.0 mph12.9 kmh 30.14 in1020.7 mb 0.00 in0.0 mm 0.00 in0.0 mm 0.00 in0.0 mm
08:50 AM 33.1°F0.6°C 30.7°F-0.7°C 91% 2.0 mph NNW3.2 kmh NNW 6.0 mph9.7 kmh 30.14 in1020.7 mb 0.00 in0.0 mm 0.00 in0.0 mm 0.00 in0.0 mm
08:45 AM 32.9°F0.5°C 30.6°F-0.8°C 91% 2.0 mph NNW3.2 kmh NNW 5.0 mph8.0 kmh 30.14 in1020.7 mb 0.00 in0.0 mm 0.00 in0.0 mm 0.00 in0.0 mm
08:40 AM 32.9°F0.5°C 30.8°F-0.7°C 92% 2.0 mph NNW3.2 kmh NNW 5.0 mph8.0 kmh 30.14 in1020.7 mb 0.00 in0.0 mm 0.00 in0.0 mm 0.00 in0.0 mm
08:35 AM 32.9°F0.5°C 30.8°F-0.7°C 92% 2.0 mph NNW3.2 kmh NNW 7.0 mph11.3 kmh 30.14 in1020.7 mb 0.00 in0.0 mm 0.00 in0.0 mm 0.00 in0.0 mm
08:25 AM 32.7°F0.4°C 30.7°F-0.7°C 92% 2.0 mph NNW3.2 kmh NNW 6.0 mph9.7 kmh 30.13 in1020.3 mb 0.00 in0.0 mm 0.00 in0.0 mm 0.00 in0.0 mm
08:20 AM 32.7°F0.4°C 30.9°F-0.6°C 93% 2.0 mph N3.2 kmh N 6.0 mph9.7 kmh 30.13 in1020.3 mb 0.00 in0.0 mm 0.00 in0.0 mm 0.00 in0.0 mm
08:15 AM 32.7°F0.4°C 30.9°F-0.6°C 93% 1.0 mph N1.6 kmh N 6.0 mph9.7 kmh 30.13 in1020.3 mb 0.00 in0.0 mm 0.00 in0.0 mm 0.00 in0.0 mm
08:10 AM 32.7°F0.4°C 30.9°F-0.6°C 93% Calm Calm 6.0 mph9.7 kmh 30.13 in1020.3 mb 0.00 in0.0 mm 0.00 in0.0 mm 0.00 in0.0 mm
08:05 AM 32.7°F0.4°C 30.9°F-0.6°C 93% Calm Calm 3.0 mph4.8 kmh 30.13 in1020.3 mb 0.00 in0.0 mm 0.00 in0.0 mm 0.00 in0.0 mm
08:00 AM 32.5°F0.3°C 30.7°F-0.7°C 93% 1.0 mph N1.6 kmh N 3.0 mph4.8 kmh 30.12 in1020.0 mb 0.00 in0.0 mm 0.00 in0.0 mm 0.00 in0.0 mm
07:55 AM 32.5°F0.3°C 30.7°F-0.7°C 93% 1.0 mph NNW1.6 kmh NNW 3.0 mph4.8 kmh 30.13 in1020.3 mb 0.00 in0.0 mm 0.00 in0.0 mm 0.00 in0.0 mm
07:50 AM 32.5°F0.3°C 30.7°F-0.7°C 93% Calm Calm 3.0 mph4.8 kmh 30.12 in1020.0 mb 0.00 in0.0 mm 0.00 in0.0 mm 0.00 in0.0 mm
07:45 AM 32.4°F0.2°C 30.6°F-0.8°C 93% Calm Calm 3.0 mph4.8 kmh 30.12 in1020.0 mb 0.00 in0.0 mm 0.00 in0.0 mm 0.00 in0.0 mm
07:40 AM 32.4°F0.2°C 30.6°F-0.8°C 93% Calm Calm 1.0 mph1.6 kmh 30.12 in1020.0 mb 0.00 in0.0 mm 0.00 in0.0 mm 0.00 in0.0 mm
07:35 AM 32.2°F0.1°C 30.4°F-0.9°C 93% Calm Calm -- 30.12 in1020.0 mb 0.00 in0.0 mm 0.00 in0.0 mm 0.00 in0.0 mm
07:30 AM 32.2°F0.1°C 30.4°F-0.9°C 93% Calm Calm -- 30.12 in1020.0 mb 0.00 in0.0 mm 0.00 in0.0 mm 0.00 in0.0 mm
07:25 AM 32.2°F0.1°C 30.4°F-0.9°C 93% Calm Calm -- 30.11 in1019.6 mb 0.00 in0.0 mm 0.00 in0.0 mm 0.00 in0.0 mm
07:20 AM 32.2°F0.1°C 30.4°F-0.9°C 93% Calm Calm -- 30.12 in1020.0 mb 0.00 in0.0 mm 0.00 in0.0 mm 0.00 in0.0 mm
07:15 AM 32.2°F0.1°C 30.4°F-0.9°C 93% Calm Calm -- 30.11 in1019.6 mb 0.00 in0.0 mm 0.00 in0.0 mm 0.00 in0.0 mm
07:10 AM 32.2°F0.1°C 30.4°F-0.9°C 93% Calm Calm -- 30.11 in1019.6 mb 0.00 in0.0 mm 0.00 in0.0 mm 0.00 in0.0 mm
07:05 AM 32.2°F0.1°C 30.4°F-0.9°C 93% Calm Calm -- 30.11 in1019.6 mb 0.00 in0.0 mm 0.00 in0.0 mm 0.00 in0.0 mm
07:00 AM 32.2°F0.1°C 30.4°F-0.9°C 93% Calm Calm -- 30.11 in1019.6 mb 0.00 in0.0 mm 0.00 in0.0 mm 0.00 in0.0 mm
06:55 AM 32.2°F0.1°C 30.4°F-0.9°C 93% Calm Calm -- 30.11 in1019.6 mb 0.00 in0.0 mm 0.00 in0.0 mm 0.00 in0.0 mm
06:50 AM 32.2°F0.1°C 30.4°F-0.9°C 93% Calm Calm -- 30.10 in1019.3 mb 0.00 in0.0 mm 0.00 in0.0 mm 0.00 in0.0 mm
06:45 AM 32.4°F0.2°C 30.6°F-0.8°C 93% Calm Calm -- 30.11 in1019.6 mb 0.00 in0.0 mm 0.00 in0.0 mm 0.00 in0.0 mm
06:40 AM 32.2°F0.1°C 30.4°F-0.9°C 93% Calm Calm -- 30.10 in1019.3 mb 0.00 in0.0 mm 0.00 in0.0 mm 0.00 in0.0 mm
06:35 AM 32.4°F0.2°C 30.6°F-0.8°C 93% Calm Calm -- 30.10 in1019.3 mb 0.00 in0.0 mm 0.00 in0.0 mm 0.00 in0.0 mm
06:30 AM 32.4°F0.2°C 30.6°F-0.8°C 93% Calm Calm -- 30.10 in1019.3 mb 0.00 in0.0 mm 0.00 in0.0 mm 0.00 in0.0 mm
06:25 AM 32.4°F0.2°C 30.6°F-0.8°C 93% Calm Calm -- 30.10 in1019.3 mb 0.00 in0.0 mm 0.00 in0.0 mm 0.00 in0.0 mm
06:20 AM 32.4°F0.2°C 30.6°F-0.8°C 93% Calm Calm 1.0 mph1.6 kmh 30.10 in1019.3 mb 0.00 in0.0 mm 0.00 in0.0 mm 0.00 in0.0 mm
06:15 AM 32.4°F0.2°C 30.6°F-0.8°C 93% Calm Calm 1.0 mph1.6 kmh 30.10 in1019.3 mb 0.00 in0.0 mm 0.00 in0.0 mm 0.00 in0.0 mm
06:10 AM 32.4°F0.2°C 30.6°F-0.8°C 93% Calm Calm 1.0 mph1.6 kmh 30.10 in1019.3 mb 0.00 in0.0 mm 0.00 in0.0 mm 0.00 in0.0 mm
06:05 AM 32.4°F0.2°C 30.6°F-0.8°C 93% Calm Calm 1.0 mph1.6 kmh 30.09 in1019.0 mb 0.00 in0.0 mm 0.00 in0.0 mm 0.00 in0.0 mm
06:00 AM 32.4°F0.2°C 30.3°F-0.9°C 92% Calm Calm -- 30.09 in1019.0 mb 0.00 in0.0 mm 0.00 in0.0 mm 0.00 in0.0 mm
05:55 AM 32.4°F0.2°C 30.3°F-0.9°C 92% Calm Calm -- 30.09 in1019.0 mb 0.00 in0.0 mm 0.00 in0.0 mm 0.00 in0.0 mm
05:50 AM 32.4°F0.2°C 30.3°F-0.9°C 92% Calm Calm -- 30.09 in1019.0 mb 0.00 in0.0 mm 0.00 in0.0 mm 0.00 in0.0 mm
05:45 AM 32.4°F0.2°C 30.3°F-0.9°C 92% Calm Calm -- 30.09 in1019.0 mb 0.00 in0.0 mm 0.00 in0.0 mm 0.00 in0.0 mm
05:35 AM 32.3°F0.2°C 30.2°F-1.0°C 92% Calm Calm -- 30.09 in1019.0 mb 0.00 in0.0 mm 0.00 in0.0 mm 0.00 in0.0 mm
05:30 AM 32.4°F0.2°C 30.3°F-0.9°C 92% Calm Calm -- 30.08 in1018.6 mb 0.00 in0.0 mm 0.00 in0.0 mm 0.00 in0.0 mm
05:25 AM 32.4°F0.2°C 30.3°F-0.9°C 92% Calm Calm -- 30.09 in1019.0 mb 0.00 in0.0 mm 0.00 in0.0 mm 0.00 in0.0 mm
05:20 AM 32.4°F0.2°C 30.3°F-0.9°C 92% Calm Calm 1.0 mph1.6 kmh 30.08 in1018.6 mb 0.00 in0.0 mm 0.00 in0.0 mm 0.00 in0.0 mm
05:15 AM 32.3°F0.2°C 30.2°F-1.0°C 92% Calm Calm 1.0 mph1.6 kmh 30.08 in1018.6 mb 0.00 in0.0 mm 0.00 in0.0 mm 0.00 in0.0 mm
05:10 AM 32.4°F0.2°C 30.3°F-0.9°C 92% Calm Calm 1.0 mph1.6 kmh 30.08 in1018.6 mb 0.00 in0.0 mm 0.00 in0.0 mm 0.00 in0.0 mm
05:05 AM 32.4°F0.2°C 30.3°F-0.9°C 92% Calm Calm -- 30.08 in1018.6 mb 0.00 in0.0 mm 0.00 in0.0 mm 0.00 in0.0 mm
05:00 AM 32.5°F0.3°C 30.4°F-0.9°C 92% Calm Calm -- 30.08 in1018.6 mb 0.00 in0.0 mm 0.00 in0.0 mm 0.00 in0.0 mm
04:55 AM 32.5°F0.3°C 30.4°F-0.9°C 92% Calm Calm -- 30.08 in1018.6 mb 0.00 in0.0 mm 0.00 in0.0 mm 0.00 in0.0 mm
04:50 AM 32.5°F0.3°C 30.4°F-0.9°C 92% Calm Calm -- 30.08 in1018.6 mb 0.00 in0.0 mm 0.00 in0.0 mm 0.00 in0.0 mm
04:45 AM 32.6°F0.3°C 30.5°F-0.8°C 92% Calm Calm -- 30.08 in1018.6 mb 0.00 in0.0 mm 0.00 in0.0 mm 0.00 in0.0 mm
04:40 AM 32.5°F0.3°C 30.4°F-0.9°C 92% Calm Calm 1.0 mph1.6 kmh 30.08 in1018.6 mb 0.00 in0.0 mm 0.00 in0.0 mm 0.00 in0.0 mm
04:35 AM 32.5°F0.3°C 30.4°F-0.9°C 92% Calm Calm 2.0 mph3.2 kmh 30.08 in1018.6 mb 0.00 in0.0 mm 0.00 in0.0 mm 0.00 in0.0 mm
04:30 AM 32.5°F0.3°C 30.4°F-0.9°C 92% Calm Calm 2.0 mph3.2 kmh 30.08 in1018.6 mb 0.00 in0.0 mm 0.00 in0.0 mm 0.00 in0.0 mm
04:25 AM 32.4°F0.2°C 30.3°F-0.9°C 92% Calm Calm 1.0 mph1.6 kmh 30.08 in1018.6 mb 0.00 in0.0 mm 0.00 in0.0 mm 0.00 in0.0 mm
04:20 AM 32.4°F0.2°C 30.3°F-0.9°C 92% Calm Calm -- 30.08 in1018.6 mb 0.00 in0.0 mm 0.00 in0.0 mm 0.00 in0.0 mm
04:15 AM 32.4°F0.2°C 30.3°F-0.9°C 92% Calm Calm 1.0 mph1.6 kmh 30.08 in1018.6 mb 0.00 in0.0 mm 0.00 in0.0 mm 0.00 in0.0 mm
04:10 AM 32.5°F0.3°C 30.4°F-0.9°C 92% Calm Calm 1.0 mph1.6 kmh 30.07 in1018.3 mb 0.00 in0.0 mm 0.00 in0.0 mm 0.00 in0.0 mm
04:05 AM 32.4°F0.2°C 30.3°F-0.9°C 92% Calm Calm 1.0 mph1.6 kmh 30.07 in1018.3 mb 0.00 in0.0 mm 0.00 in0.0 mm 0.00 in0.0 mm
04:00 AM 32.5°F0.3°C 30.4°F-0.9°C 92% Calm Calm 1.0 mph1.6 kmh 30.07 in1018.3 mb 0.00 in0.0 mm 0.00 in0.0 mm 0.00 in0.0 mm
03:55 AM 32.5°F0.3°C 30.4°F-0.9°C 92% Calm Calm 1.0 mph1.6 kmh 30.07 in1018.3 mb 0.00 in0.0 mm 0.00 in0.0 mm 0.00 in0.0 mm
03:50 AM 32.5°F0.3°C 30.4°F-0.9°C 92% Calm Calm 1.0 mph1.6 kmh 30.07 in1018.3 mb 0.00 in0.0 mm 0.00 in0.0 mm 0.00 in0.0 mm
03:45 AM 32.5°F0.3°C 30.4°F-0.9°C 92% Calm Calm 1.0 mph1.6 kmh 30.07 in1018.3 mb 0.00 in0.0 mm 0.00 in0.0 mm 0.00 in0.0 mm
03:40 AM 32.5°F0.3°C 30.4°F-0.9°C 92% Calm Calm -- 30.07 in1018.3 mb 0.00 in0.0 mm 0.00 in0.0 mm 0.00 in0.0 mm
03:35 AM 32.6°F0.3°C 30.5°F-0.8°C 92% Calm Calm -- 30.07 in1018.3 mb 0.00 in0.0 mm 0.00 in0.0 mm 0.00 in0.0 mm
03:30 AM 32.6°F0.3°C 30.8°F-0.7°C 93% Calm Calm 1.0 mph1.6 kmh 30.07 in1018.3 mb 0.00 in0.0 mm 0.00 in0.0 mm 0.00 in0.0 mm
03:25 AM 32.7°F0.4°C 30.9°F-0.6°C 93% Calm Calm 1.0 mph1.6 kmh 30.07 in1018.3 mb 0.00 in0.0 mm 0.00 in0.0 mm 0.00 in0.0 mm
03:20 AM 32.7°F0.4°C 30.9°F-0.6°C 93% Calm Calm 2.0 mph3.2 kmh 30.07 in1018.3 mb 0.00 in0.0 mm 0.00 in0.0 mm 0.00 in0.0 mm
03:15 AM 32.6°F0.3°C 30.8°F-0.7°C 93% Calm Calm 2.0 mph3.2 kmh 30.07 in1018.3 mb 0.00 in0.0 mm 0.00 in0.0 mm 0.00 in0.0 mm
03:10 AM 32.6°F0.3°C 30.8°F-0.7°C 93% Calm Calm -- 30.07 in1018.3 mb 0.00 in0.0 mm 0.00 in0.0 mm 0.00 in0.0 mm
03:05 AM 32.5°F0.3°C 30.7°F-0.7°C 93% Calm Calm -- 30.07 in1018.3 mb 0.00 in0.0 mm 0.00 in0.0 mm 0.00 in0.0 mm
03:00 AM 32.6°F0.3°C 30.8°F-0.7°C 93% Calm Calm -- 30.07 in1018.3 mb 0.00 in0.0 mm 0.00 in0.0 mm 0.00 in0.0 mm
02:55 AM 32.6°F0.3°C 30.8°F-0.7°C 93% Calm Calm 1.0 mph1.6 kmh 30.07 in1018.3 mb 0.00 in0.0 mm 0.00 in0.0 mm 0.00 in0.0 mm
02:50 AM 32.6°F0.3°C 30.8°F-0.7°C 93% Calm Calm 1.0 mph1.6 kmh 30.07 in1018.3 mb 0.00 in0.0 mm 0.00 in0.0 mm 0.00 in0.0 mm
02:45 AM 32.6°F0.3°C 30.8°F-0.7°C 93% Calm Calm 2.0 mph3.2 kmh 30.07 in1018.3 mb 0.00 in0.0 mm 0.00 in0.0 mm 0.00 in0.0 mm
02:40 AM 32.6°F0.3°C 30.8°F-0.7°C 93% Calm Calm 2.0 mph3.2 kmh 30.07 in1018.3 mb 0.00 in0.0 mm 0.00 in0.0 mm 0.00 in0.0 mm
02:35 AM 32.6°F0.3°C 30.8°F-0.7°C 93% Calm Calm 1.0 mph1.6 kmh 30.07 in1018.3 mb 0.00 in0.0 mm 0.00 in0.0 mm 0.00 in0.0 mm
02:30 AM 32.5°F0.3°C 30.7°F-0.7°C 93% Calm Calm 2.0 mph3.2 kmh 30.07 in1018.3 mb 0.00 in0.0 mm 0.00 in0.0 mm 0.00 in0.0 mm
02:25 AM 32.5°F0.3°C 30.7°F-0.7°C 93% Calm Calm 2.0 mph3.2 kmh 30.07 in1018.3 mb 0.00 in0.0 mm 0.00 in0.0 mm 0.00 in0.0 mm
02:20 AM 32.5°F0.3°C 30.4°F-0.9°C 92% Calm Calm -- 30.07 in1018.3 mb 0.00 in0.0 mm 0.00 in0.0 mm 0.00 in0.0 mm
02:15 AM 32.5°F0.3°C 30.4°F-0.9°C 92% Calm Calm -- 30.07 in1018.3 mb 0.00 in0.0 mm 0.00 in0.0 mm 0.00 in0.0 mm
02:10 AM 32.5°F0.3°C 30.4°F-0.9°C 92% Calm Calm 2.0 mph3.2 kmh 30.07 in1018.3 mb 0.00 in0.0 mm 0.00 in0.0 mm 0.00 in0.0 mm
02:05 AM 32.6°F0.3°C 30.5°F-0.8°C 92% Calm Calm 2.0 mph3.2 kmh 30.07 in1018.3 mb 0.00 in0.0 mm 0.00 in0.0 mm 0.00 in0.0 mm
02:00 AM 32.5°F0.3°C 30.4°F-0.9°C 92% Calm Calm 2.0 mph3.2 kmh 30.07 in1018.3 mb 0.00 in0.0 mm 0.00 in0.0 mm 0.00 in0.0 mm
01:55 AM 32.5°F0.3°C 30.4°F-0.9°C 92% 1.0 mph SSE1.6 kmh SSE 2.0 mph3.2 kmh 30.06 in1017.9 mb 0.00 in0.0 mm 0.00 in0.0 mm 0.00 in0.0 mm
01:50 AM 32.6°F0.3°C 30.5°F-0.8°C 92% Calm Calm 2.0 mph3.2 kmh 30.06 in1017.9 mb 0.00 in0.0 mm 0.00 in0.0 mm 0.00 in0.0 mm
01:45 AM 32.6°F0.3°C 30.5°F-0.8°C 92% Calm Calm 1.0 mph1.6 kmh 30.06 in1017.9 mb 0.00 in0.0 mm 0.00 in0.0 mm 0.00 in0.0 mm
01:40 AM 32.6°F0.3°C 30.5°F-0.8°C 92% Calm Calm 1.0 mph1.6 kmh 30.06 in1017.9 mb 0.00 in0.0 mm 0.00 in0.0 mm 0.00 in0.0 mm
01:35 AM 32.6°F0.3°C 30.5°F-0.8°C 92% Calm Calm -- 30.06 in1017.9 mb 0.00 in0.0 mm 0.00 in0.0 mm 0.00 in0.0 mm
01:30 AM 32.7°F0.4°C 30.9°F-0.6°C 93% Calm Calm -- 30.06 in1017.9 mb 0.00 in0.0 mm 0.00 in0.0 mm 0.00 in0.0 mm
01:25 AM 32.8°F0.4°C 31.0°F-0.6°C 93% Calm Calm -- 30.06 in1017.9 mb 0.00 in0.0 mm 0.00 in0.0 mm 0.00 in0.0 mm
01:20 AM 32.9°F0.5°C 31.1°F-0.5°C 93% Calm Calm 1.0 mph1.6 kmh 30.06 in1017.9 mb 0.00 in0.0 mm 0.00 in0.0 mm 0.00 in0.0 mm
01:15 AM 32.8°F0.4°C 31.0°F-0.6°C 93% Calm Calm 2.0 mph3.2 kmh 30.06 in1017.9 mb 0.00 in0.0 mm 0.00 in0.0 mm 0.00 in0.0 mm
01:10 AM 32.6°F0.3°C 30.8°F-0.7°C 93% Calm Calm 2.0 mph3.2 kmh 30.06 in1017.9 mb 0.00 in0.0 mm 0.00 in0.0 mm 0.00 in0.0 mm
01:05 AM 32.6°F0.3°C 30.8°F-0.7°C 93% Calm Calm -- 30.05 in1017.6 mb 0.00 in0.0 mm 0.00 in0.0 mm 0.00 in0.0 mm
01:00 AM 32.6°F0.3°C 30.8°F-0.7°C 93% Calm Calm -- 30.05 in1017.6 mb 0.00 in0.0 mm 0.00 in0.0 mm 0.00 in0.0 mm
12:55 AM 32.6°F0.3°C 30.8°F-0.7°C 93% Calm Calm -- 30.05 in1017.6 mb 0.00 in0.0 mm 0.00 in0.0 mm 0.00 in0.0 mm
12:50 AM 32.6°F0.3°C 30.8°F-0.7°C 93% Calm Calm -- 30.05 in1017.6 mb 0.00 in0.0 mm 0.00 in0.0 mm 0.00 in0.0 mm
12:45 AM 32.6°F0.3°C 30.8°F-0.7°C 93% Calm Calm -- 30.05 in1017.6 mb 0.00 in0.0 mm 0.00 in0.0 mm 0.00 in0.0 mm
12:40 AM 32.6°F0.3°C 30.8°F-0.7°C 93% Calm Calm -- 30.05 in1017.6 mb 0.00 in0.0 mm 0.00 in0.0 mm 0.00 in0.0 mm
12:35 AM 32.6°F0.3°C 30.8°F-0.7°C 93% Calm Calm -- 30.05 in1017.6 mb 0.00 in0.0 mm 0.00 in0.0 mm 0.00 in0.0 mm
12:30 AM 32.7°F0.4°C 30.9°F-0.6°C 93% Calm Calm 2.0 mph3.2 kmh 30.05 in1017.6 mb 0.00 in0.0 mm 0.00 in0.0 mm 0.00 in0.0 mm
12:25 AM 32.6°F0.3°C 30.8°F-0.7°C 93% Calm Calm 2.0 mph3.2 kmh 30.04 in1017.3 mb 0.00 in0.0 mm 0.00 in0.0 mm 0.00 in0.0 mm
12:20 AM 32.6°F0.3°C 30.8°F-0.7°C 93% Calm Calm 1.0 mph1.6 kmh 30.04 in1017.3 mb 0.00 in0.0 mm 0.00 in0.0 mm 0.00 in0.0 mm
12:15 AM 32.5°F0.3°C 30.7°F-0.7°C 93% Calm Calm -- 30.04 in1017.3 mb 0.00 in0.0 mm 0.00 in0.0 mm 0.00 in0.0 mm
12:10 AM 32.5°F0.3°C 30.7°F-0.7°C 93% Calm Calm -- 30.04 in1017.3 mb 0.00 in0.0 mm 0.00 in0.0 mm 0.00 in0.0 mm
12:05 AM 32.6°F0.3°C 30.8°F-0.7°C 93% Calm Calm -- 30.04 in1017.3 mb 0.00 in0.0 mm 0.00 in0.0 mm 0.00 in0.0 mm
12:00 AM 32.6°F0.3°C 30.8°F-0.7°C 93% Calm Calm -- 30.04 in1017.3 mb 0.00 in0.0 mm 0.00 in0.0 mm 0.05 in1.3 mm